Time;durP1;ratioP1;P1;durP2;ratioP2;P2;SDS_P1;SDS_P2;PMS_P1;PMS_P2;Temp;Humidity;BMP_temperature;BMP_pressure;BME280_temperature;BME280_humidity;BME280_pressure;Samples;Min_cycle;Max_cycle;Signal;HPM_P1;HPM_P2
2023/01/02 00:01:11;;;;;;;2.83;0.90;;;;;;;-145.69;67.09;52369.13;5075924;28;20203;-78
2023/01/02 00:03:39;;;;;;;1.30;0.90;;;;;;;-145.69;65.01;52408.75;5075800;28;20701;-78
2023/01/02 00:06:06;;;;;;;1.88;1.00;;;;;;;-145.69;67.20;52406.75;5074857;28;20199;-78
2023/01/02 00:08:33;;;;;;;5.10;1.00;;;;;;;-145.69;70.28;52410.72;5075463;28;20210;-79
2023/01/02 00:10:59;;;;;;;2.75;1.10;;;;;;;-145.69;69.89;52394.88;5075022;28;20657;-78
2023/01/02 00:13:26;;;;;;;4.25;0.80;;;;;;;-145.69;73.99;52428.53;5075646;28;20199;-78
2023/01/02 00:15:52;;;;;;;1.88;0.85;;;;;;;-145.69;74.08;52390.91;5075592;28;20203;-78
2023/01/02 00:18:19;;;;;;;2.13;0.88;;;;;;;-145.69;74.09;52404.78;5076036;28;20208;-78
2023/01/02 00:20:47;;;;;;;5.00;1.33;;;;;;;-145.69;78.41;52408.75;5075631;28;20682;-78
2023/01/02 00:23:13;;;;;;;3.03;1.02;;;;;;;-145.69;76.21;52420.63;5075532;28;20693;-78
2023/01/02 00:25:40;;;;;;;1.70;0.95;;;;;;;-145.69;74.04;52440.44;5075608;28;20226;-78
2023/01/02 00:28:06;;;;;;;2.10;1.15;;;;;;;-145.69;75.56;52416.66;5075512;28;20203;-78
2023/01/02 00:30:32;;;;;;;0.75;0.70;;;;;;;-145.69;72.56;52440.44;5074033;28;20573;-78
2023/01/02 00:32:59;;;;;;;8.70;1.45;;;;;;;-145.69;74.96;52386.97;5075608;28;20214;-78
2023/01/02 00:35:25;;;;;;;3.10;1.00;;;;;;;-145.69;74.63;52416.66;5062975;28;20207;-77
2023/01/02 00:37:53;;;;;;;4.05;0.90;;;;;;;-145.69;71.83;52424.59;5055311;28;20574;-77
2023/01/02 00:40:19;;;;;;;2.78;0.88;;;;;;;-145.69;70.80;52430.53;5056271;28;20207;-78
2023/01/02 00:42:46;;;;;;;1.33;0.80;;;;;;;-145.69;67.82;52398.84;5074764;28;20234;-78
2023/01/02 00:45:12;;;;;;;5.00;0.80;;;;;;;-145.69;70.11;52416.66;5075380;28;20199;-78
2023/01/02 00:47:39;;;;;;;7.15;0.98;;;;;;;-145.69;70.95;52408.75;5075262;28;20553;-78
2023/01/02 00:50:06;;;;;;;1.25;0.80;;;;;;;-145.69;73.94;52396.84;5075057;28;20199;-78
2023/01/02 00:52:33;;;;;;;2.90;0.70;;;;;;;-145.69;71.72;52408.75;5075174;28;20207;-78
2023/01/02 00:55:01;;;;;;;1.00;0.88;;;;;;;-145.69;69.23;52424.59;5074971;28;20206;-78
2023/01/02 00:57:27;;;;;;;3.95;1.08;;;;;;;-145.69;68.16;52402.78;5074871;28;20592;-78
2023/01/02 00:59:53;;;;;;;2.75;0.70;;;;;;;-145.69;74.36;52452.31;5074949;28;20199;-78
2023/01/02 01:02:20;;;;;;;3.03;0.60;;;;;;;-145.69;68.65;52408.75;5074977;28;20203;-78
2023/01/02 01:04:46;;;;;;;2.00;0.75;;;;;;;-145.69;60.86;52408.75;5074944;28;20225;-78
2023/01/02 01:07:13;;;;;;;2.97;0.90;;;;;;;-145.69;57.68;52384.97;5074802;28;20600;-78
2023/01/02 01:09:39;;;;;;;1.75;0.73;;;;;;;-145.69;59.36;52418.63;5074605;28;20202;-78
2023/01/02 01:12:07;;;;;;;3.00;0.93;;;;;;;-145.69;58.41;52396.84;5074360;28;20202;-78
2023/01/02 01:14:33;;;;;;;1.35;0.82;;;;;;;-145.69;58.46;52424.59;5074853;28;20202;-77
2023/01/02 01:17:01;;;;;;;1.13;0.60;;;;;;;-145.69;56.97;52412.69;5074684;28;20225;-78
2023/01/02 01:19:29;;;;;;;1.52;0.70;;;;;;;-145.69;53.72;52408.75;5074709;28;20203;-78
2023/01/02 01:21:55;;;;;;;2.75;0.80;;;;;;;-145.69;52.37;52394.88;5074489;28;20195;-78
2023/01/02 01:24:22;;;;;;;1.58;0.80;;;;;;;-145.69;52.42;52416.66;5074442;28;20234;-78
2023/01/02 01:26:48;;;;;;;2.70;0.60;;;;;;;-145.69;49.63;52383.00;5074378;28;20658;-78
2023/01/02 01:29:16;;;;;;;1.45;0.80;;;;;;;-145.69;51.55;52377.06;5074549;28;20206;-78
2023/01/02 01:31:42;;;;;;;1.23;0.77;;;;;;;-145.69;50.93;52371.13;5074476;28;20195;-78
2023/01/02 01:34:11;;;;;;;1.33;0.50;;;;;;;-145.69;50.87;52390.91;5074252;28;20700;-79
2023/01/02 01:36:37;;;;;;;2.17;0.75;;;;;;;-145.69;49.44;52329.53;5074214;28;20203;-78
2023/01/02 01:39:04;;;;;;;2.13;0.70;;;;;;;-145.69;52.59;52388.94;5074293;28;20207;-78
2023/01/02 01:41:30;;;;;;;0.95;0.80;;;;;;;-145.69;52.55;52381.00;5073514;28;20223;-79
2023/01/02 01:43:59;;;;;;;2.17;0.90;;;;;;;-145.69;51.60;52381.00;5074220;28;20237;-78
2023/01/02 01:46:31;;;;;;;1.73;0.70;;;;;;;-145.69;51.93;52353.28;5074117;28;20217;-79
2023/01/02 01:49:03;;;;;;;3.90;0.80;;;;;;;-145.69;53.56;52388.94;5073934;28;20203;-78
2023/01/02 01:51:32;;;;;;;2.47;1.23;;;;;;;-145.69;52.75;52375.06;5073790;28;20573;-78
2023/01/02 01:54:05;;;;;;;2.97;1.00;;;;;;;-145.69;55.64;52392.91;5073952;28;20558;-78
2023/01/02 01:56:35;;;;;;;1.85;1.20;;;;;;;-145.69;53.02;52377.06;5073915;28;20195;-79
2023/01/02 01:59:02;;;;;;;3.88;1.08;;;;;;;-145.69;56.78;52349.31;5073890;28;20199;-78
2023/01/02 02:01:30;;;;;;;3.05;0.80;;;;;;;-145.69;54.86;52363.19;5073791;28;20206;-78
2023/01/02 02:03:57;;;;;;;2.78;0.80;;;;;;;-145.69;54.44;52392.91;5073735;28;20230;-78
2023/01/02 02:06:24;;;;;;;0.82;0.60;;;;;;;-145.69;54.16;52384.97;5073994;28;20608;-78
2023/01/02 02:08:57;;;;;;;2.22;0.80;;;;;;;-145.69;54.36;52392.91;5073500;28;20195;-78
2023/01/02 02:11:24;;;;;;;6.03;1.15;;;;;;;-145.69;55.80;52394.88;5073159;28;20198;-78
2023/01/02 02:13:51;;;;;;;2.10;0.70;;;;;;;-145.69;53.35;52377.06;5073548;28;20194;-78
2023/01/02 02:16:28;;;;;;;3.20;0.60;;;;;;;-145.69;54.70;52361.22;5073411;28;20207;-78
2023/01/02 02:19:24;;;;;;;2.00;0.70;;;;;;;-145.69;57.30;52381.00;5073514;28;20209;-78
2023/01/02 02:22:13;;;;;;;2.13;0.75;;;;;;;-145.69;57.61;52379.03;5073215;28;20592;-79
2023/01/02 02:25:03;;;;;;;2.50;0.70;;;;;;;-145.69;56.06;52404.78;5072770;28;20234;-79
2023/01/02 02:27:50;;;;;;;3.67;0.95;;;;;;;-145.69;55.16;52388.94;5070074;28;20445;-78
2023/01/02 02:30:19;;;;;;;2.92;0.80;;;;;;;-145.69;56.39;52396.84;5073219;28;20198;-78
2023/01/02 02:33:05;;;;;;;1.73;0.90;;;;;;;-145.69;55.38;52377.06;5073219;28;20572;-78
2023/01/02 02:35:48;;;;;;;1.85;1.02;;;;;;;-145.69;55.78;52361.22;5073605;28;20199;-78
2023/01/02 02:38:24;;;;;;;2.22;0.85;;;;;;;-145.69;55.30;52388.94;5073164;28;20627;-78
2023/01/02 02:40:59;;;;;;;3.38;0.70;;;;;;;-145.69;55.18;52375.06;5074045;28;20664;-78
2023/01/02 02:43:32;;;;;;;2.92;1.00;;;;;;;-145.69;58.29;52373.09;5073011;28;20229;-78
2023/01/02 02:46:07;;;;;;;2.58;0.85;;;;;;;-145.69;59.33;52377.06;5072848;28;20573;-79
2023/01/02 02:48:42;;;;;;;1.75;0.80;;;;;;;-145.69;57.73;52351.31;5073033;28;20661;-78
2023/01/02 02:51:13;;;;;;;2.67;0.80;;;;;;;-145.69;58.92;52379.03;5073045;28;20206;-78
2023/01/02 02:53:43;;;;;;;4.28;0.77;;;;;;;-145.69;54.81;52365.16;5072482;28;20203;-78
2023/01/02 02:56:12;;;;;;;4.13;0.90;;;;;;;-145.69;55.09;52396.84;5072644;28;20433;-79
2023/01/02 02:58:41;;;;;;;1.55;1.00;;;;;;;-145.69;54.43;52388.94;5073081;28;20195;-79
2023/01/02 03:01:15;;;;;;;1.70;0.80;;;;;;;-145.69;53.22;52420.63;5072982;28;20224;-79
2023/01/02 03:03:41;;;;;;;1.55;0.80;;;;;;;-145.69;50.64;52398.84;5072851;28;20222;-79
2023/01/02 03:06:21;;;;;;;3.13;0.90;;;;;;;-145.69;51.01;52390.91;5072829;28;20209;-79
2023/01/02 03:09:01;;;;;;;3.03;0.90;;;;;;;-145.69;49.64;52367.16;5072961;28;20209;-78
2023/01/02 03:11:39;;;;;;;4.25;0.75;;;;;;;-145.69;50.95;52369.13;5072725;28;20599;-79
2023/01/02 03:14:14;;;;;;;3.38;0.95;;;;;;;-145.69;48.86;52375.06;5072479;28;20680;-79
2023/01/02 03:16:47;;;;;;;3.17;0.70;;;;;;;-145.69;49.48;52383.00;5072620;28;20205;-79
2023/01/02 03:19:20;;;;;;;3.53;1.08;;;;;;;-145.69;49.11;52381.00;5072372;28;20222;-78
2023/01/02 03:21:57;;;;;;;3.67;1.10;;;;;;;-145.69;51.41;52377.06;5072691;28;20199;-78
2023/01/02 03:24:25;;;;;;;5.53;1.00;;;;;;;-145.69;49.33;52367.16;5072536;28;20222;-77
2023/01/02 03:26:58;;;;;;;3.70;1.10;;;;;;;-145.69;47.68;52345.38;5072580;28;20209;-77
2023/01/02 03:29:31;;;;;;;1.63;0.93;;;;;;;-145.69;46.97;52365.16;5072453;28;20199;-78
2023/01/02 03:32:01;;;;;;;1.65;0.88;;;;;;;-145.69;47.48;52351.31;5072731;28;20198;-77
2023/01/02 03:34:32;;;;;;;1.52;0.77;;;;;;;-145.69;46.66;52359.22;5072643;28;20199;-78
2023/01/02 03:37:07;;;;;;;2.22;1.00;;;;;;;-145.69;46.71;52361.22;5072598;28;20202;-78
2023/01/02 03:39:37;;;;;;;2.22;1.02;;;;;;;-145.69;46.66;52359.22;5072582;28;20649;-78
2023/01/02 03:42:09;;;;;;;5.30;1.05;;;;;;;-145.69;47.49;52361.22;5071867;28;20225;-78
2023/01/02 03:44:41;;;;;;;5.30;1.02;;;;;;;-145.69;47.67;52377.06;5072465;28;20233;-78
2023/01/02 03:47:21;;;;;;;4.25;0.90;;;;;;;-145.69;45.79;52353.28;5072326;28;20203;-78
2023/01/02 03:49:51;;;;;;;3.90;1.02;;;;;;;-145.69;48.91;52386.97;5072399;28;20191;-77
2023/01/02 03:52:18;;;;;;;4.30;0.90;;;;;;;-145.69;45.92;52379.03;5071810;28;20828;-77
2023/01/02 03:54:45;;;;;;;3.75;1.17;;;;;;;-145.69;47.75;52341.41;5072526;28;20213;-78
2023/01/02 03:57:20;;;;;;;2.13;0.93;;;;;;;-145.69;49.07;52349.31;5072398;28;20202;-78
2023/01/02 03:59:55;;;;;;;4.40;1.40;;;;;;;-145.69;50.87;52365.16;5072388;28;20205;-78
2023/01/02 04:02:28;;;;;;;3.67;1.13;;;;;;;-145.69;52.08;52381.00;5072125;28;20198;-78
2023/01/02 04:04:58;;;;;;;3.80;0.95;;;;;;;-145.69;54.38;52361.22;5072849;28;20253;-78
2023/01/02 04:07:28;;;;;;;3.75;1.20;;;;;;;-145.69;51.82;52386.97;5075958;28;20199;-79
2023/01/02 04:09:56;;;;;;;3.53;0.80;;;;;;;-145.69;59.39;52392.91;5075860;28;20684;-78
2023/01/02 04:12:24;;;;;;;1.25;0.90;;;;;;;-145.69;53.92;52400.81;5075397;28;20593;-78
2023/01/02 04:14:55;;;;;;;4.22;0.98;;;;;;;-145.69;52.53;52363.19;5075870;28;20199;-78
2023/01/02 04:17:26;;;;;;;4.30;1.38;;;;;;;-145.69;51.37;52365.16;5075559;28;20666;-78
2023/01/02 04:19:55;;;;;;;4.65;1.20;;;;;;;-145.69;50.93;52369.13;5075233;28;20206;-78
2023/01/02 04:22:27;;;;;;;5.07;1.08;;;;;;;-145.69;53.95;52373.09;5075736;28;20206;-78
2023/01/02 04:24:57;;;;;;;1.95;0.77;;;;;;;-145.69;57.89;52365.16;5075330;28;20697;-78
2023/01/02 04:27:28;;;;;;;4.82;0.98;;;;;;;-145.69;50.18;52392.91;5075692;28;20202;-78
2023/01/02 04:29:56;;;;;;;2.53;0.88;;;;;;;-145.69;51.07;52367.16;5075255;28;20199;-79
2023/01/02 04:32:27;;;;;;;4.80;1.00;;;;;;;-145.69;51.40;52377.06;5075612;28;20211;-78
2023/01/02 04:34:55;;;;;;;3.22;1.00;;;;;;;-145.69;46.04;52371.13;5072867;28;20214;-78
2023/01/02 04:37:32;;;;;;;5.30;1.20;;;;;;;-145.69;49.50;52386.97;5075135;28;20229;-78
2023/01/02 04:40:04;;;;;;;3.13;1.02;;;;;;;-145.69;48.94;52351.31;5075222;28;20199;-78
2023/01/02 04:42:30;;;;;;;3.13;1.08;;;;;;;-145.69;52.90;52398.84;5074787;28;20234;-79
2023/01/02 04:44:56;;;;;;;2.85;0.80;;;;;;;-145.69;50.71;52383.00;5075495;28;20231;-78
2023/01/02 04:47:24;;;;;;;4.32;0.88;;;;;;;-145.69;50.63;52377.06;5075173;28;20198;-78
2023/01/02 04:49:51;;;;;;;3.35;1.10;;;;;;;-145.69;48.76;52369.13;5075245;28;20194;-78
2023/01/02 04:52:17;;;;;;;2.25;1.08;;;;;;;-145.69;48.67;52379.03;5075005;28;20203;-78
2023/01/02 04:54:43;;;;;;;5.75;1.10;;;;;;;-145.69;47.72;52365.16;5074948;28;20669;-78
2023/01/02 04:57:10;;;;;;;2.30;0.90;;;;;;;-145.69;45.83;52386.97;5074936;28;20215;-78
2023/01/02 04:59:36;;;;;;;4.05;1.35;;;;;;;-145.69;45.28;52361.22;5075145;28;20199;-78
2023/01/02 05:02:03;;;;;;;5.22;1.10;;;;;;;-145.69;45.26;52357.25;5075146;28;20199;-78
2023/01/02 05:04:30;;;;;;;3.10;0.95;;;;;;;-145.69;44.31;52383.00;5074901;28;20218;-78
2023/01/02 05:06:57;;;;;;;4.35;0.90;;;;;;;-145.69;44.29;52355.28;5074767;28;20199;-78
2023/01/02 05:09:23;;;;;;;4.05;0.80;;;;;;;-145.69;42.90;52345.38;5074698;28;20206;-78
2023/01/02 05:11:50;;;;;;;4.05;0.90;;;;;;;-145.69;43.28;52377.06;5074647;28;20198;-79
2023/01/02 05:14:16;;;;;;;5.10;0.93;;;;;;;-145.69;41.55;52375.06;5074642;28;20202;-78
2023/01/02 05:16:42;;;;;;;2.05;1.10;;;;;;;-145.69;42.67;52337.44;5073900;28;20203;-78
2023/01/02 05:19:09;;;;;;;2.58;1.00;;;;;;;-145.69;42.49;52341.41;5074621;28;20611;-78
2023/01/02 05:24:20;;;;;;;3.17;0.85;;;;;;;-145.69;43.20;52349.31;5074492;28;20299;-78
2023/01/02 05:26:47;;;;;;;2.55;1.10;;;;;;;-145.69;44.12;52349.31;5074349;28;20199;-78
2023/01/02 05:29:13;;;;;;;2.45;1.00;;;;;;;-145.69;43.00;52365.16;5074638;28;20207;-78
2023/01/02 05:31:40;;;;;;;4.50;0.95;;;;;;;-145.69;43.30;52351.31;5074383;28;20199;-78
2023/01/02 05:34:06;;;;;;;2.95;1.00;;;;;;;-145.69;43.67;52341.41;5073811;28;20198;-78
2023/01/02 05:36:32;;;;;;;3.17;1.25;;;;;;;-145.69;43.54;52325.56;5074368;28;20658;-78
2023/01/02 05:39:00;;;;;;;5.05;1.40;;;;;;;-145.69;43.87;52345.38;5074070;28;20209;-78
2023/01/02 05:41:27;;;;;;;3.10;1.10;;;;;;;-145.69;42.71;52339.44;5074160;28;20230;-78
2023/01/02 05:43:54;;;;;;;3.33;1.15;;;;;;;-145.69;42.16;52341.41;5073712;28;20195;-78
2023/01/02 05:46:21;;;;;;;4.85;1.10;;;;;;;-145.69;43.42;52323.59;5075096;28;20222;-78
2023/01/02 05:48:48;;;;;;;2.03;0.90;;;;;;;-145.69;43.45;52315.66;5073937;28;20281;-79
2023/01/02 05:51:16;;;;;;;2.47;1.05;;;;;;;-145.69;42.56;52353.28;5073941;28;20202;-78
2023/01/02 05:53:42;;;;;;;5.75;1.30;;;;;;;-145.69;43.11;52365.16;5073652;28;20198;-78
2023/01/02 05:56:12;;;;;;;3.13;1.10;;;;;;;-145.69;44.39;52349.31;5073674;28;20198;-78
2023/01/02 05:58:40;;;;;;;3.90;1.00;;;;;;;-145.69;45.62;52377.06;5073945;28;20198;-78
2023/01/02 06:01:09;;;;;;;3.90;1.10;;;;;;;-145.69;46.50;52347.34;5073820;28;20198;-78
2023/01/02 06:03:36;;;;;;;8.93;1.10;;;;;;;-145.69;43.58;52355.28;5073579;28;20535;-78
2023/01/02 06:06:04;;;;;;;2.00;0.98;;;;;;;-145.69;44.89;52359.22;5073485;28;20234;-78
2023/01/02 06:08:30;;;;;;;3.40;0.93;;;;;;;-145.69;46.87;52321.59;5073681;28;20344;-78
2023/01/02 06:10:57;;;;;;;8.98;1.02;;;;;;;-145.69;46.61;52367.16;5073652;28;20209;-78
2023/01/02 06:13:25;;;;;;;2.58;1.00;;;;;;;-145.69;46.61;52349.31;5073316;28;20202;-78
2023/01/02 06:15:53;;;;;;;7.82;1.17;;;;;;;-145.69;45.26;52363.19;5073467;28;20207;-78
2023/01/02 06:18:20;;;;;;;3.25;1.30;;;;;;;-145.69;43.20;52341.41;5073292;28;20195;-78
2023/01/02 06:20:46;;;;;;;3.00;1.38;;;;;;;-145.69;44.40;52337.44;5073696;28;20233;-78
2023/01/02 06:23:13;;;;;;;4.70;1.20;;;;;;;-145.69;44.55;52355.28;5073504;28;20205;-79
2023/01/02 06:25:40;;;;;;;4.32;1.25;;;;;;;-145.69;42.05;52357.25;5073144;28;20735;-78
2023/01/02 06:28:06;;;;;;;6.43;1.30;;;;;;;-145.69;44.06;52363.19;5073053;28;20203;-79
2023/01/02 06:30:34;;;;;;;6.03;0.90;;;;;;;-145.69;44.43;52369.13;5073165;28;20206;-78
2023/01/02 06:33:00;;;;;;;2.30;0.77;;;;;;;-145.69;44.48;52365.16;5073066;28;20709;-78
2023/01/02 06:35:27;;;;;;;4.07;1.30;;;;;;;-145.69;42.83;52373.09;5073407;28;20202;-78
2023/01/02 06:37:53;;;;;;;6.32;1.20;;;;;;;-145.69;45.07;52357.25;5073156;28;20195;-78
2023/01/02 06:40:20;;;;;;;3.50;1.20;;;;;;;-145.69;43.88;52359.22;5073124;28;20596;-78
2023/01/02 06:42:46;;;;;;;3.80;1.00;;;;;;;-145.69;45.08;52353.28;5072665;28;20230;-78
2023/01/02 06:45:13;;;;;;;7.63;1.10;;;;;;;-145.69;46.05;52361.22;5068907;28;20226;-77
2023/01/02 06:47:40;;;;;;;5.13;1.45;;;;;;;-145.69;47.25;52371.13;5073155;28;20202;-78
2023/01/02 06:50:07;;;;;;;2.97;1.00;;;;;;;-145.69;45.14;52381.00;5073152;28;20198;-78
2023/01/02 06:52:34;;;;;;;2.40;1.10;;;;;;;-145.69;44.99;52367.16;5072674;28;20229;-78
2023/01/02 06:55:00;;;;;;;5.90;1.33;;;;;;;-145.69;46.66;52329.53;5072915;28;20187;-78
2023/01/02 06:57:29;;;;;;;4.20;0.80;;;;;;;-145.69;47.42;52345.38;5072789;28;20207;-78
2023/01/02 06:59:55;;;;;;;7.22;1.40;;;;;;;-145.69;49.94;52349.31;5072816;28;20222;-78
2023/01/02 07:02:22;;;;;;;2.65;1.17;;;;;;;-145.69;48.57;52373.09;5073019;28;20199;-78
2023/01/02 07:04:49;;;;;;;3.45;1.70;;;;;;;-145.69;50.66;52361.22;5072476;28;20720;-78
2023/01/02 07:07:16;;;;;;;3.90;1.52;;;;;;;-145.69;46.85;52361.22;5072900;28;20206;-78
2023/01/02 07:09:42;;;;;;;3.53;1.10;;;;;;;-145.69;45.56;52341.41;5072891;28;20203;-78
2023/01/02 07:12:08;;;;;;;2.88;1.15;;;;;;;-145.69;46.66;52361.22;5072879;28;20221;-78
2023/01/02 07:14:35;;;;;;;7.28;1.25;;;;;;;-145.69;54.36;52337.44;5072588;28;20680;-78
2023/01/02 07:17:01;;;;;;;2.50;1.10;;;;;;;-145.69;49.46;52359.22;5072918;28;20210;-78
2023/01/02 07:19:28;;;;;;;4.93;0.90;;;;;;;-145.69;46.41;52369.13;5072975;28;20202;-78
2023/01/02 07:21:55;;;;;;;3.47;1.30;;;;;;;-145.69;43.82;52321.59;5072821;28;20198;-79
2023/01/02 07:24:22;;;;;;;9.88;1.48;;;;;;;-145.69;46.32;52337.44;5072575;28;20654;-78
2023/01/02 07:26:48;;;;;;;3.53;1.10;;;;;;;-145.69;47.65;52367.16;5072590;28;20206;-78
2023/01/02 07:29:15;;;;;;;4.07;0.90;;;;;;;-145.69;46.45;52353.28;5072700;28;20225;-79
2023/01/02 07:31:41;;;;;;;1.58;0.90;;;;;;;-145.69;48.27;52359.22;5072679;28;20198;-78
2023/01/02 07:34:07;;;;;;;5.90;1.05;;;;;;;-145.69;46.51;52349.31;5072592;28;20198;-79
2023/01/02 07:36:34;;;;;;;2.03;1.00;;;;;;;-145.69;48.56;52377.06;5072424;28;20658;-79
2023/01/02 07:39:02;;;;;;;5.18;1.20;;;;;;;-145.69;46.69;52361.22;5072505;28;20203;-78
2023/01/02 07:41:28;;;;;;;9.98;1.10;;;;;;;-145.69;43.52;52359.22;5075785;28;20237;-78
2023/01/02 07:43:55;;;;;;;3.25;0.90;;;;;;;-145.69;44.71;52384.97;5076239;28;20669;-79
2023/01/02 07:46:22;;;;;;;6.18;1.33;;;;;;;-145.69;46.78;52353.28;5076325;28;20261;-78
2023/01/02 07:48:49;;;;;;;2.85;0.95;;;;;;;-145.69;47.56;52367.16;5076582;28;20199;-78
2023/01/02 07:51:15;;;;;;;3.35;1.15;;;;;;;-145.69;47.22;52353.28;5076470;28;20248;-78
2023/01/02 07:53:42;;;;;;;4.13;1.10;;;;;;;-145.69;46.54;52357.25;5076297;28;20207;-78
2023/01/02 07:56:10;;;;;;;2.10;1.10;;;;;;;-145.69;49.45;52363.19;5075824;28;20191;-78
2023/01/02 07:58:36;;;;;;;7.45;1.15;;;;;;;-145.69;51.77;52384.97;5076424;28;20199;-78
2023/01/02 08:01:07;;;;;;;2.17;0.70;;;;;;;-145.69;46.36;52384.97;5075979;28;20202;-78
2023/01/02 08:03:33;;;;;;;6.32;1.20;;;;;;;-145.69;47.24;52359.22;5076143;28;20673;-77
2023/01/02 08:06:04;;;;;;;3.22;1.08;;;;;;;-145.69;51.65;52347.34;5076022;28;20230;-78
2023/01/02 08:08:30;;;;;;;4.22;1.35;;;;;;;-145.69;52.48;52388.94;5075959;28;20202;-78
2023/01/02 08:10:57;;;;;;;4.50;1.00;;;;;;;-145.69;50.47;52381.00;5075613;28;20650;-78
2023/01/02 08:13:24;;;;;;;3.72;1.35;;;;;;;-145.69;53.98;52375.06;5075749;28;20692;-78
2023/01/02 08:15:51;;;;;;;2.55;0.95;;;;;;;-145.69;53.88;52369.13;5075960;28;20199;-78
2023/01/02 08:18:17;;;;;;;2.50;1.02;;;;;;;-145.69;58.13;52392.91;5075765;28;20190;-78
2023/01/02 08:20:44;;;;;;;5.50;1.33;;;;;;;-145.69;58.14;52400.81;5075770;28;20205;-76
2023/01/02 08:23:10;;;;;;;4.70;1.10;;;;;;;-145.69;56.34;52367.16;5075659;28;20203;-77
2023/01/02 08:25:37;;;;;;;3.20;0.90;;;;;;;-145.69;53.59;52392.91;5075616;28;20712;-77
2023/01/02 08:28:03;;;;;;;4.90;1.10;;;;;;;-145.69;55.47;52365.16;5075951;28;20202;-77
2023/01/02 08:30:31;;;;;;;4.55;1.20;;;;;;;-145.69;53.12;52369.13;5075649;28;20207;-78
2023/01/02 08:32:59;;;;;;;4.47;1.05;;;;;;;-145.69;52.77;52333.47;5075508;28;20191;-78
2023/01/02 08:35:26;;;;;;;2.45;0.90;;;;;;;-145.69;48.01;52369.13;5075673;28;20203;-77
2023/01/02 08:37:54;;;;;;;2.90;0.98;;;;;;;-145.69;49.35;52367.16;5075421;28;20202;-77
2023/01/02 08:40:20;;;;;;;4.50;1.35;;;;;;;-145.69;50.21;52359.22;5075577;28;20226;-77
2023/01/02 08:42:46;;;;;;;3.15;1.00;;;;;;;-145.69;48.62;52351.31;5073963;28;20612;-77
2023/01/02 08:45:13;;;;;;;3.00;1.20;;;;;;;-145.69;53.74;52375.06;5073578;28;20225;-77
2023/01/02 08:47:41;;;;;;;3.50;1.30;;;;;;;-145.69;56.13;52339.44;5075400;28;20202;-77
2023/01/02 08:50:08;;;;;;;3.83;0.95;;;;;;;-145.69;53.45;52375.06;5075287;28;20206;-78
2023/01/02 08:52:34;;;;;;;3.45;1.02;;;;;;;-145.69;56.01;52388.94;5074332;28;20203;-77
2023/01/02 08:55:02;;;;;;;3.55;1.15;;;;;;;-145.69;56.03;52371.13;5075235;28;20202;-77
2023/01/02 08:57:29;;;;;;;3.42;1.20;;;;;;;-145.69;54.28;52379.03;5076435;28;20240;-77
2023/01/02 08:59:56;;;;;;;5.10;1.23;;;;;;;-145.69;56.08;52381.00;5074928;28;20677;-78
2023/01/02 09:02:22;;;;;;;8.27;1.35;;;;;;;-145.69;56.22;52383.00;5074825;28;20195;-77
2023/01/02 09:04:50;;;;;;;5.30;1.35;;;;;;;-145.69;58.98;52345.38;5074905;28;20199;-79
2023/01/02 09:07:17;;;;;;;10.07;1.30;;;;;;;-145.69;48.04;52349.31;5074960;28;20198;-77
2023/01/02 09:09:43;;;;;;;4.57;0.93;;;;;;;-145.69;49.60;52357.25;5074678;28;20642;-77
2023/01/02 09:12:10;;;;;;;5.72;1.00;;;;;;;-145.69;50.27;52349.31;5074737;28;20561;-78
2023/01/02 09:14:36;;;;;;;9.25;1.40;;;;;;;-145.69;53.66;52355.28;5074972;28;20202;-77
2023/01/02 09:17:03;;;;;;;7.75;1.23;;;;;;;-145.69;53.53;52351.31;5075022;28;20202;-78
2023/01/02 09:19:30;;;;;;;10.45;1.40;;;;;;;-145.69;52.16;52341.41;5074640;28;20210;-77
2023/01/02 09:22:00;;;;;;;1.85;0.85;;;;;;;-145.69;52.60;52357.25;5074858;28;20205;-78
2023/01/02 09:24:26;;;;;;;4.60;0.82;;;;;;;-145.69;48.69;52353.28;5074659;28;20661;-79
2023/01/02 09:26:53;;;;;;;6.10;1.02;;;;;;;-145.69;45.16;52371.13;5074481;28;20230;-79
2023/01/02 09:29:20;;;;;;;3.20;1.17;;;;;;;-145.69;47.95;52353.28;5074042;28;20431;-80
2023/01/02 09:31:46;;;;;;;3.15;1.30;;;;;;;-145.69;47.83;52361.22;5073885;28;20198;-82
2023/01/02 09:34:13;;;;;;;4.13;1.10;;;;;;;-145.69;48.68;52365.16;5074412;28;20678;-81
2023/01/02 09:36:39;;;;;;;2.60;1.00;;;;;;;-145.69;47.04;52327.53;5074330;28;20670;-82
2023/01/02 09:39:07;;;;;;;7.50;1.10;;;;;;;-145.69;47.56;52329.53;5074285;28;20206;-81
2023/01/02 09:41:37;;;;;;;5.78;1.38;;;;;;;-145.69;49.37;52347.34;5073870;28;20230;-81
2023/01/02 09:44:10;;;;;;;9.45;1.58;;;;;;;-145.69;54.11;52384.97;5074057;28;20233;-80
2023/01/02 09:46:41;;;;;;;5.45;1.30;;;;;;;-145.69;50.98;52345.38;5073864;28;20229;-81
2023/01/02 09:49:13;;;;;;;4.88;1.20;;;;;;;-145.69;50.12;52337.44;5074377;28;20229;-82
2023/01/02 09:51:40;;;;;;;15.02;1.35;;;;;;;-145.69;47.55;52343.38;5073138;28;20278;-82
2023/01/02 09:54:15;;;;;;;3.03;1.13;;;;;;;-145.69;45.88;52365.16;5073914;28;20202;-81
2023/01/02 09:56:44;;;;;;;4.90;1.83;;;;;;;-145.69;44.48;52361.22;5073940;28;20190;-82
2023/01/02 09:59:16;;;;;;;3.78;1.10;;;;;;;-145.69;45.19;52327.53;5075676;28;20668;-82
2023/01/02 10:01:55;;;;;;;3.70;0.95;;;;;;;-145.69;45.70;52333.47;5074595;28;20211;-80
2023/01/02 10:04:33;;;;;;;3.08;0.75;;;;;;;-145.69;45.18;52351.31;5073353;28;20288;-81
2023/01/02 10:07:08;;;;;;;5.20;1.10;;;;;;;-145.69;46.71;52317.66;5073718;28;20238;-81
2023/01/02 10:09:46;;;;;;;6.68;1.67;;;;;;;-145.69;50.74;52323.59;5072804;28;20792;-82
2023/01/02 10:12:20;;;;;;;2.92;1.33;;;;;;;-145.69;48.91;52317.66;5073822;28;20217;-82
2023/01/02 10:14:54;;;;;;;5.22;1.50;;;;;;;-145.69;49.37;52339.44;5073711;28;20230;-81
2023/01/02 10:17:21;;;;;;;5.57;1.90;;;;;;;-145.69;50.95;52321.59;5073644;28;20198;-81
2023/01/02 10:19:52;;;;;;;5.60;1.60;;;;;;;-145.69;50.14;52361.22;5073237;28;20199;-82
2023/01/02 10:22:22;;;;;;;4.63;1.25;;;;;;;-145.69;52.34;52321.59;5073812;28;20392;-82
2023/01/02 10:24:59;;;;;;;3.42;1.40;;;;;;;-145.69;53.57;52341.41;5073730;28;20206;-81
2023/01/02 10:27:32;;;;;;;3.75;1.80;;;;;;;-145.69;55.03;52329.53;5073332;28;20222;-82
2023/01/02 10:30:06;;;;;;;5.45;1.30;;;;;;;-145.69;56.80;52347.34;5073299;28;20206;-82
2023/01/02 10:32:35;;;;;;;5.05;1.63;;;;;;;-145.69;54.88;52388.94;5073244;28;20203;-80
2023/01/02 10:35:11;;;;;;;5.32;1.30;;;;;;;-145.69;57.64;52337.44;5073161;28;20653;-82
2023/01/02 10:37:38;;;;;;;4.93;1.52;;;;;;;-145.69;57.50;52351.31;5072566;28;20206;-82
2023/01/02 10:40:06;;;;;;;3.90;1.30;;;;;;;-145.69;58.21;52396.84;5072086;28;20233;-82
2023/01/02 10:42:33;;;;;;;4.85;1.80;;;;;;;-145.69;57.63;52327.53;5072896;28;20693;-81
2023/01/02 10:45:00;;;;;;;4.85;1.60;;;;;;;-145.69;59.99;52357.25;5073023;28;20203;-81
2023/01/02 10:47:34;;;;;;;6.38;1.67;;;;;;;-145.69;58.28;52388.94;5073583;28;20230;-82
2023/01/02 10:50:01;;;;;;;7.60;1.63;;;;;;;-145.69;65.97;52345.38;5072896;28;20194;-82
2023/01/02 10:52:32;;;;;;;9.38;1.77;;;;;;;-145.69;52.58;52349.31;5073185;28;20199;-81
2023/01/02 10:54:59;;;;;;;7.40;1.65;;;;;;;-145.69;49.52;52337.44;5072993;28;20201;-81
2023/01/02 10:57:41;;;;;;;2.50;1.30;;;;;;;-145.69;42.23;52317.66;5071874;28;20699;-81
2023/01/02 11:00:27;;;;;;;9.55;1.52;;;;;;;-145.69;44.35;52359.22;5072975;28;20293;-81
2023/01/02 11:02:57;;;;;;;3.05;1.25;;;;;;;-145.69;46.71;52349.31;5073052;28;20202;-81
2023/01/02 11:05:26;;;;;;;5.55;1.60;;;;;;;-145.69;46.61;52335.47;5073000;28;20210;-81
2023/01/02 11:07:54;;;;;;;5.72;1.63;;;;;;;-145.69;46.80;52321.59;5072883;28;20654;-81
2023/01/02 11:10:26;;;;;;;6.40;1.60;;;;;;;-145.69;47.16;52301.81;5072919;28;20558;-82
2023/01/02 11:12:54;;;;;;;10.45;1.60;;;;;;;-145.69;44.63;52359.22;5070778;28;20601;-80
2023/01/02 11:15:26;;;;;;;8.90;1.42;;;;;;;-145.69;43.56;52329.53;5071599;28;20199;-80
2023/01/02 11:17:52;;;;;;;6.00;1.67;;;;;;;-145.69;43.43;52293.88;5072331;28;20211;-79
2023/01/02 11:20:25;;;;;;;9.98;1.75;;;;;;;-145.69;41.77;52274.06;5072275;28;20711;-80
2023/01/02 11:22:54;;;;;;;6.20;1.30;;;;;;;-145.69;41.49;52325.56;5072046;28;20202;-79
2023/01/02 11:25:23;;;;;;;13.20;1.88;;;;;;;-145.69;42.05;52311.69;5072690;28;20194;-80
2023/01/02 11:27:50;;;;;;;8.65;1.40;;;;;;;-145.69;41.39;52291.91;5072175;28;20229;-79